createdAt,value
2022-08-31T00:02:16.642Z,64.20
2022-08-31T00:04:44.330Z,64.17
2022-08-31T00:07:11.971Z,64.30
2022-08-31T00:09:39.397Z,64.16
2022-08-31T00:12:07.131Z,64.26
2022-08-31T00:14:36.129Z,64.27
2022-08-31T00:17:04.308Z,64.26
2022-08-31T00:19:31.841Z,64.44
2022-08-31T00:21:59.321Z,64.36
2022-08-31T00:24:26.855Z,64.23
2022-08-31T00:26:54.331Z,64.53
2022-08-31T00:29:21.804Z,64.33
2022-08-31T00:31:49.447Z,64.30
2022-08-31T00:34:17.466Z,64.48
2022-08-31T00:36:47.336Z,64.28
2022-08-31T00:39:15.062Z,64.37
2022-08-31T00:41:43.596Z,64.46
2022-08-31T00:44:11.672Z,64.55
2022-08-31T00:46:42.856Z,64.66
2022-08-31T00:49:15.697Z,64.62
2022-08-31T00:52:01.593Z,64.54
2022-08-31T00:54:37.526Z,64.67
2022-08-31T00:57:07.196Z,64.68
2022-08-31T00:59:35.799Z,64.64
2022-08-31T01:02:04.559Z,64.92
2022-08-31T01:04:33.479Z,64.87
2022-08-31T01:07:03.566Z,64.78
2022-08-31T01:09:36.334Z,64.57
2022-08-31T01:12:07.809Z,64.82
2022-08-31T01:14:39.913Z,64.86
2022-08-31T01:17:07.932Z,64.80
2022-08-31T01:20:04.881Z,64.80
2022-08-31T01:22:51.249Z,65.01
2022-08-31T01:25:19.939Z,64.90
2022-08-31T01:27:47.454Z,64.78
2022-08-31T01:30:22.919Z,64.96
2022-08-31T01:32:50.758Z,64.92
2022-08-31T01:35:18.688Z,64.95
2022-08-31T01:37:46.234Z,64.95
2022-08-31T01:40:13.998Z,64.90
2022-08-31T01:42:41.532Z,65.01
2022-08-31T01:45:10.153Z,64.98
2022-08-31T01:47:41.211Z,64.96
2022-08-31T01:50:09.276Z,64.92
2022-08-31T01:52:38.441Z,64.91
2022-08-31T01:55:07.300Z,64.95
2022-08-31T01:57:35.500Z,65.02
2022-08-31T02:00:08.667Z,64.91
2022-08-31T02:02:36.621Z,65.06
2022-08-31T02:05:05.251Z,65.05
2022-08-31T02:07:33.022Z,65.17
2022-08-31T02:10:00.470Z,65.08
2022-08-31T02:12:27.966Z,65.08
2022-08-31T02:14:55.418Z,65.04
2022-08-31T02:17:22.981Z,65.15
2022-08-31T02:19:50.414Z,65.36
2022-08-31T02:22:18.118Z,65.13
2022-08-31T02:24:45.702Z,65.11
2022-08-31T02:27:13.135Z,65.24
2022-08-31T02:29:40.661Z,65.01
2022-08-31T02:32:08.246Z,65.02
2022-08-31T02:34:48.413Z,65.10
2022-08-31T02:37:16.381Z,65.27
2022-08-31T02:39:44.996Z,65.12
2022-08-31T02:42:12.581Z,65.08
2022-08-31T02:44:40.067Z,65.00
2022-08-31T02:47:07.527Z,64.94
2022-08-31T02:49:35.113Z,65.17
2022-08-31T02:52:02.837Z,65.09
2022-08-31T02:54:30.345Z,65.22
2022-08-31T02:56:57.850Z,65.23
2022-08-31T02:59:25.355Z,65.40
2022-08-31T03:01:54.256Z,65.14
2022-08-31T03:04:21.849Z,65.35
2022-08-31T03:06:49.642Z,65.44
2022-08-31T03:09:17.229Z,65.54
2022-08-31T03:11:45.686Z,65.35
2022-08-31T03:14:13.222Z,65.38
2022-08-31T03:16:41.195Z,65.51
2022-08-31T03:19:09.408Z,65.74
2022-08-31T03:21:37.290Z,65.54
2022-08-31T03:24:04.981Z,65.78
2022-08-31T03:26:32.487Z,65.76
2022-08-31T03:28:59.970Z,65.57
2022-08-31T03:31:27.665Z,65.65
2022-08-31T03:33:55.753Z,65.73
2022-08-31T03:36:23.930Z,65.96
2022-08-31T03:38:51.396Z,66.02
2022-08-31T03:41:24.398Z,65.92
2022-08-31T03:43:52.516Z,66.04
2022-08-31T03:46:20.106Z,65.89
2022-08-31T03:48:47.704Z,66.04
2022-08-31T03:51:16.545Z,66.11
2022-08-31T03:53:44.138Z,66.01
2022-08-31T03:56:11.589Z,66.06
2022-08-31T03:58:39.148Z,66.03
2022-08-31T04:01:07.586Z,66.16
2022-08-31T04:03:36.002Z,66.22
2022-08-31T04:06:08.558Z,66.24
2022-08-31T04:08:36.637Z,66.16
2022-08-31T04:11:13.947Z,66.40
2022-08-31T04:13:42.264Z,66.32
2022-08-31T04:16:12.307Z,66.06
2022-08-31T04:18:41.478Z,66.05
2022-08-31T04:21:13.123Z,66.11
2022-08-31T04:23:41.677Z,66.03
2022-08-31T04:26:26.687Z,66.20
2022-08-31T04:28:55.151Z,66.19
2022-08-31T04:31:24.723Z,66.00
2022-08-31T04:33:52.825Z,65.96
2022-08-31T04:36:23.766Z,66.09
2022-08-31T04:38:53.795Z,66.05
2022-08-31T04:41:23.878Z,66.07
2022-08-31T04:43:53.293Z,66.28
2022-08-31T04:46:21.849Z,66.03
2022-08-31T04:48:49.858Z,66.03
2022-08-31T04:51:20.736Z,66.16
2022-08-31T04:53:48.894Z,66.35
2022-08-31T04:56:20.305Z,66.28
2022-08-31T04:58:51.679Z,66.07
2022-08-31T05:01:25.334Z,66.14
2022-08-31T05:03:55.155Z,66.35
2022-08-31T05:06:26.876Z,66.35
2022-08-31T05:09:03.813Z,66.46
2022-08-31T05:11:32.242Z,66.36
2022-08-31T05:14:02.041Z,66.31
2022-08-31T05:16:30.730Z,66.36
2022-08-31T05:18:58.869Z,66.30
2022-08-31T05:21:30.615Z,66.32
2022-08-31T05:24:02.628Z,66.38
2022-08-31T05:26:34.189Z,66.27
2022-08-31T05:29:04.486Z,66.23
2022-08-31T05:31:38.796Z,66.22
2022-08-31T05:34:07.605Z,66.17
2022-08-31T05:36:35.754Z,66.06
2022-08-31T05:39:03.328Z,66.23
2022-08-31T05:41:31.443Z,65.96
2022-08-31T05:43:58.947Z,66.14
2022-08-31T05:46:27.072Z,65.98
2022-08-31T05:48:54.551Z,65.99
2022-08-31T05:51:22.515Z,66.06
2022-08-31T05:53:51.314Z,65.83
2022-08-31T05:56:21.642Z,65.87
2022-08-31T05:58:49.865Z,66.04
2022-08-31T06:01:21.530Z,65.88
2022-08-31T06:03:49.535Z,65.90
2022-08-31T06:06:17.597Z,65.78
2022-08-31T06:08:45.776Z,65.90
2022-08-31T06:11:17.516Z,65.89
2022-08-31T06:13:47.013Z,66.00
2022-08-31T06:16:15.111Z,65.71
2022-08-31T06:18:49.441Z,65.91
2022-08-31T06:21:34.598Z,65.71
2022-08-31T06:24:04.361Z,65.56
2022-08-31T06:26:34.310Z,65.36
2022-08-31T06:29:04.738Z,65.33
2022-08-31T06:31:37.243Z,65.42
2022-08-31T06:34:07.074Z,65.34
2022-08-31T06:36:35.348Z,65.29
2022-08-31T06:39:04.910Z,65.41
2022-08-31T06:41:38.984Z,65.22
2022-08-31T06:44:09.506Z,65.11
2022-08-31T06:46:39.046Z,64.82
2022-08-31T06:49:08.688Z,64.78
2022-08-31T06:51:38.320Z,64.73
2022-08-31T06:54:28.064Z,64.71
2022-08-31T06:56:57.309Z,64.60
2022-08-31T06:59:28.462Z,64.51
2022-08-31T07:01:59.467Z,64.77
2022-08-31T07:04:27.708Z,64.47
2022-08-31T07:06:55.222Z,64.31
2022-08-31T07:09:23.132Z,64.10
2022-08-31T07:11:52.285Z,64.03
2022-08-31T07:14:22.925Z,63.85
2022-08-31T07:16:53.469Z,63.46
2022-08-31T07:19:22.117Z,63.35
2022-08-31T07:21:55.870Z,63.14
2022-08-31T07:24:28.471Z,63.10
2022-08-31T07:27:05.049Z,62.96
2022-08-31T07:29:40.261Z,63.17
2022-08-31T07:32:10.191Z,62.85
2022-08-31T07:34:38.563Z,62.68
2022-08-31T07:37:23.117Z,62.51
2022-08-31T07:40:08.321Z,62.51
2022-08-31T07:42:39.870Z,62.53
2022-08-31T07:45:12.792Z,62.51
2022-08-31T07:47:45.958Z,62.30
2022-08-31T07:50:16.818Z,62.09
2022-08-31T07:52:48.499Z,62.07
2022-08-31T07:55:18.848Z,61.91
2022-08-31T07:57:46.685Z,61.87
2022-08-31T08:00:21.061Z,61.87
2022-08-31T08:02:52.871Z,61.71
2022-08-31T08:05:27.340Z,61.56
2022-08-31T08:08:09.326Z,61.46
2022-08-31T08:10:43.394Z,61.33
2022-08-31T08:13:12.590Z,61.40
2022-08-31T08:15:41.938Z,61.31
2022-08-31T08:18:12.211Z,60.97
2022-08-31T08:20:40.494Z,60.81
2022-08-31T08:23:14.648Z,61.05
2022-08-31T08:25:43.655Z,60.72
2022-08-31T08:31:06.750Z,60.55
2022-08-31T08:33:35.783Z,60.24
2022-08-31T08:36:07.775Z,59.96
2022-08-31T08:38:39.489Z,60.07
2022-08-31T08:41:13.220Z,59.87
2022-08-31T08:43:47.961Z,59.76
2022-08-31T08:46:48.694Z,59.47
2022-08-31T08:49:50.966Z,59.01
2022-08-31T08:52:37.078Z,59.22
2022-08-31T08:55:11.155Z,58.82
2022-08-31T08:57:42.418Z,58.60
2022-08-31T09:00:16.932Z,58.55
2022-08-31T09:03:01.876Z,58.49
2022-08-31T09:06:01.826Z,58.21
2022-08-31T09:08:32.140Z,57.97
2022-08-31T09:11:02.633Z,57.95
2022-08-31T09:14:06.213Z,57.71
2022-08-31T09:16:42.127Z,57.27
2022-08-31T09:19:17.182Z,56.70
2022-08-31T09:21:51.073Z,56.36
2022-08-31T09:24:22.065Z,56.20
2022-08-31T09:27:22.500Z,56.09
2022-08-31T09:30:00.440Z,55.53
2022-08-31T09:32:31.387Z,55.05
2022-08-31T09:35:03.022Z,54.98
2022-08-31T09:37:46.363Z,55.05
2022-08-31T09:40:23.638Z,54.71
2022-08-31T09:43:25.280Z,54.79
2022-08-31T09:46:05.807Z,54.13
2022-08-31T09:48:54.855Z,53.67
2022-08-31T09:51:29.360Z,52.64
2022-08-31T09:54:46.569Z,52.36
2022-08-31T09:57:14.931Z,52.31
2022-08-31T09:59:49.159Z,52.02
2022-08-31T10:02:28.531Z,51.95
2022-08-31T10:05:00.808Z,51.61
2022-08-31T10:07:33.007Z,51.14
2022-08-31T10:10:31.104Z,51.13
2022-08-31T10:13:06.108Z,50.89
2022-08-31T10:15:54.371Z,50.73
2022-08-31T10:18:45.010Z,50.01
2022-08-31T10:21:21.303Z,49.54
2022-08-31T10:23:56.102Z,48.79
2022-08-31T10:26:37.368Z,48.53
2022-08-31T10:29:23.593Z,48.24
2022-08-31T10:31:57.367Z,48.00
2022-08-31T10:34:47.764Z,48.04
2022-08-31T10:37:24.792Z,47.83
2022-08-31T10:39:58.123Z,47.91
2022-08-31T10:42:36.031Z,48.05
2022-08-31T10:45:18.374Z,48.04
2022-08-31T10:47:49.970Z,48.33
2022-08-31T10:50:44.983Z,48.50
2022-08-31T10:53:39.993Z,48.76
2022-08-31T10:56:16.437Z,48.65
2022-08-31T10:58:58.632Z,48.73
2022-08-31T11:01:47.645Z,48.98
2022-08-31T11:04:47.231Z,49.11
2022-08-31T11:07:36.889Z,49.32
2022-08-31T11:10:26.138Z,49.72
2022-08-31T11:13:00.897Z,49.86
2022-08-31T11:15:31.483Z,50.38
2022-08-31T11:18:39.884Z,50.44
2022-08-31T11:21:39.286Z,50.91
2022-08-31T11:24:37.631Z,50.95
2022-08-31T11:27:11.863Z,51.30
2022-08-31T11:29:48.352Z,51.55
2022-08-31T11:32:47.309Z,51.83
2022-08-31T11:35:15.387Z,52.15
2022-08-31T11:38:01.561Z,52.19
2022-08-31T11:40:41.486Z,52.13
2022-08-31T11:43:35.187Z,52.06
2022-08-31T11:46:27.227Z,51.98
2022-08-31T11:48:55.077Z,51.91
2022-08-31T11:51:40.661Z,51.88
2022-08-31T11:54:14.659Z,51.83
2022-08-31T11:56:47.327Z,51.66
2022-08-31T11:59:36.919Z,51.75
2022-08-31T12:02:22.655Z,51.79
2022-08-31T12:04:53.484Z,51.96
2022-08-31T12:07:48.130Z,51.88
2022-08-31T12:10:18.455Z,52.06
2022-08-31T12:12:55.136Z,51.96
2022-08-31T12:16:01.174Z,51.99
2022-08-31T12:18:44.899Z,51.94
2022-08-31T12:21:54.154Z,52.15
2022-08-31T12:24:36.510Z,52.30
2022-08-31T12:27:10.880Z,52.34
2022-08-31T12:29:40.271Z,52.38
2022-08-31T12:32:39.700Z,52.33
2022-08-31T12:35:24.986Z,52.50
2022-08-31T12:38:01.062Z,52.56
2022-08-31T12:40:33.280Z,52.55
2022-08-31T12:43:18.488Z,52.51
2022-08-31T12:46:02.316Z,52.60
2022-08-31T12:48:48.437Z,52.73
2022-08-31T12:51:18.704Z,52.72
2022-08-31T12:53:55.260Z,52.59
2022-08-31T12:56:58.936Z,52.72
2022-08-31T13:00:00.579Z,52.65
2022-08-31T13:02:33.339Z,52.65
2022-08-31T13:05:14.082Z,52.52
2022-08-31T13:07:41.572Z,52.55
2022-08-31T13:10:16.447Z,52.34
2022-08-31T13:12:53.074Z,52.25
2022-08-31T13:15:29.229Z,52.27
2022-08-31T13:17:57.183Z,52.19
2022-08-31T13:20:28.743Z,51.80
2022-08-31T13:23:02.136Z,51.06
2022-08-31T13:25:37.569Z,50.15
2022-08-31T13:28:10.606Z,49.95
2022-08-31T13:30:39.289Z,49.61
2022-08-31T13:33:25.043Z,49.00
2022-08-31T13:36:03.020Z,48.28
2022-08-31T13:38:49.101Z,47.02
2022-08-31T13:41:38.408Z,46.57
2022-08-31T13:44:11.680Z,46.13
2022-08-31T13:46:44.481Z,45.02
2022-08-31T13:49:36.852Z,44.73
2022-08-31T13:52:07.792Z,44.33
2022-08-31T13:54:36.124Z,43.96
2022-08-31T13:57:22.619Z,44.00
2022-08-31T13:59:50.171Z,43.97
2022-08-31T14:02:22.091Z,44.20
2022-08-31T14:04:52.482Z,44.19
2022-08-31T14:07:26.047Z,44.38
2022-08-31T14:10:01.507Z,44.42
2022-08-31T14:12:36.600Z,44.43
2022-08-31T14:15:17.963Z,44.54
2022-08-31T14:21:22.321Z,44.27
2022-08-31T14:24:02.643Z,44.02
2022-08-31T14:26:36.741Z,43.64
2022-08-31T14:29:10.939Z,43.88
2022-08-31T14:31:49.167Z,44.03
2022-08-31T14:34:24.778Z,44.04
2022-08-31T14:37:02.082Z,43.95
2022-08-31T14:39:53.742Z,44.01
2022-08-31T14:42:26.294Z,44.17
2022-08-31T14:45:04.261Z,44.13
2022-08-31T14:47:36.060Z,44.33
2022-08-31T14:50:08.006Z,44.40
2022-08-31T14:52:44.361Z,44.35
2022-08-31T14:55:14.176Z,44.48
2022-08-31T14:57:45.695Z,44.68
2022-08-31T15:00:23.239Z,44.57
2022-08-31T15:02:56.504Z,44.67
2022-08-31T15:05:25.503Z,44.58
2022-08-31T15:07:54.824Z,44.90
2022-08-31T15:10:25.958Z,44.89
2022-08-31T15:12:54.155Z,44.91
2022-08-31T15:15:21.863Z,44.94
2022-08-31T15:17:51.656Z,45.17
2022-08-31T15:20:20.894Z,45.54
2022-08-31T15:22:48.786Z,45.72
2022-08-31T15:25:18.438Z,45.15
2022-08-31T15:27:46.499Z,44.34
2022-08-31T15:30:18.666Z,43.80
2022-08-31T15:32:47.793Z,43.54
2022-08-31T15:35:19.594Z,43.33
2022-08-31T15:37:55.091Z,43.05
2022-08-31T15:40:23.493Z,42.96
2022-08-31T15:42:53.963Z,42.83
2022-08-31T15:45:23.190Z,42.90
2022-08-31T15:48:06.730Z,42.90
2022-08-31T15:50:35.744Z,42.46
2022-08-31T15:53:09.475Z,42.20
2022-08-31T15:55:41.123Z,42.31
2022-08-31T15:58:09.822Z,42.39
2022-08-31T16:00:42.436Z,42.10
2022-08-31T16:03:10.275Z,42.25
2022-08-31T16:05:39.504Z,42.14
2022-08-31T16:08:10.888Z,42.18
2022-08-31T16:10:46.815Z,42.30
2022-08-31T16:13:16.043Z,42.16
2022-08-31T16:15:51.110Z,42.13
2022-08-31T16:18:22.487Z,42.11
2022-08-31T16:20:51.671Z,42.06
2022-08-31T16:23:19.783Z,42.19
2022-08-31T16:25:48.651Z,42.12
2022-08-31T16:28:20.802Z,42.36
2022-08-31T16:30:51.186Z,42.65
2022-08-31T16:33:20.453Z,43.04
2022-08-31T16:35:48.477Z,42.81
2022-08-31T16:38:16.787Z,41.66
2022-08-31T16:40:44.741Z,41.45
2022-08-31T16:43:12.475Z,41.93
2022-08-31T16:45:41.401Z,41.42
2022-08-31T16:48:25.134Z,41.03
2022-08-31T16:50:58.026Z,41.45
2022-08-31T16:53:25.681Z,41.47
2022-08-31T16:55:53.128Z,41.25
2022-08-31T16:58:47.687Z,40.86
2022-08-31T17:01:15.145Z,40.55
2022-08-31T17:03:50.564Z,40.38
2022-08-31T17:06:18.888Z,40.02
2022-08-31T17:08:46.982Z,39.79
2022-08-31T17:11:23.591Z,39.71
2022-08-31T17:13:57.954Z,39.49
2022-08-31T17:16:29.698Z,39.65
2022-08-31T17:18:58.430Z,39.38
2022-08-31T17:21:29.924Z,39.29
2022-08-31T17:24:01.814Z,39.10
2022-08-31T17:26:33.697Z,39.01
2022-08-31T17:29:03.572Z,39.26
2022-08-31T17:31:35.983Z,39.56
2022-08-31T17:34:03.560Z,39.93
2022-08-31T17:36:37.356Z,40.17
2022-08-31T17:39:06.212Z,40.30
2022-08-31T17:41:34.638Z,40.63
2022-08-31T17:44:02.957Z,40.88
2022-08-31T17:46:30.691Z,41.11
2022-08-31T17:48:58.480Z,41.24
2022-08-31T17:51:29.783Z,41.47
2022-08-31T17:54:10.733Z,41.72
2022-08-31T17:56:48.149Z,41.98
2022-08-31T17:59:19.023Z,42.21
2022-08-31T18:01:50.067Z,42.31
2022-08-31T18:04:19.508Z,42.71
2022-08-31T18:06:51.429Z,42.83
2022-08-31T18:09:22.822Z,42.99
2022-08-31T18:11:50.908Z,43.17
2022-08-31T18:14:21.583Z,43.50
2022-08-31T18:16:50.991Z,43.77
2022-08-31T18:19:27.723Z,43.94
2022-08-31T18:21:56.718Z,44.22
2022-08-31T18:24:24.500Z,44.26
2022-08-31T18:26:52.905Z,44.60
2022-08-31T18:29:24.955Z,44.70
2022-08-31T18:31:54.083Z,44.92
2022-08-31T18:34:24.421Z,45.29
2022-08-31T18:36:55.332Z,45.63
2022-08-31T18:39:50.048Z,45.91
2022-08-31T18:42:28.759Z,46.29
2022-08-31T18:45:12.244Z,46.41
2022-08-31T18:47:39.669Z,46.72
2022-08-31T18:50:08.066Z,46.96
2022-08-31T18:52:39.140Z,47.22
2022-08-31T18:55:07.702Z,47.52
2022-08-31T18:57:42.773Z,47.44
2022-08-31T19:00:17.676Z,47.71
2022-08-31T19:02:45.674Z,47.86
2022-08-31T19:05:14.541Z,48.09
2022-08-31T19:07:43.053Z,48.02
2022-08-31T19:10:13.545Z,48.42
2022-08-31T19:12:42.548Z,48.70
2022-08-31T19:15:12.361Z,48.74
2022-08-31T19:17:41.745Z,48.99
2022-08-31T19:20:10.606Z,49.06
2022-08-31T19:22:38.476Z,49.27
2022-08-31T19:25:09.300Z,49.43
2022-08-31T19:27:37.698Z,49.75
2022-08-31T19:30:08.247Z,49.84
2022-08-31T19:32:36.916Z,50.06
2022-08-31T19:35:04.791Z,50.09
2022-08-31T19:37:32.318Z,50.11
2022-08-31T19:39:59.701Z,50.29
2022-08-31T19:42:59.627Z,50.33
2022-08-31T19:45:40.660Z,50.56
2022-08-31T19:48:05.970Z,50.84
2022-08-31T19:50:41.637Z,50.89
2022-08-31T19:53:13.718Z,51.25
2022-08-31T19:55:50.772Z,51.28
2022-08-31T19:58:26.152Z,51.58
2022-08-31T20:01:00.628Z,51.53
2022-08-31T20:03:31.099Z,51.71
2022-08-31T20:05:59.652Z,51.79
2022-08-31T20:08:27.075Z,51.87
2022-08-31T20:10:54.497Z,52.16
2022-08-31T20:13:24.188Z,52.39
2022-08-31T20:15:52.861Z,52.36
2022-08-31T20:18:20.740Z,52.45
2022-08-31T20:20:50.763Z,52.43
2022-08-31T20:23:21.482Z,52.60
2022-08-31T20:25:50.858Z,52.60
2022-08-31T20:28:26.399Z,52.68
2022-08-31T20:31:00.037Z,52.85
2022-08-31T20:33:28.224Z,52.65
2022-08-31T20:35:55.644Z,52.86
2022-08-31T20:38:23.929Z,52.92
2022-08-31T20:40:52.092Z,53.06
2022-08-31T20:43:21.346Z,52.99
2022-08-31T20:45:49.107Z,53.23
2022-08-31T20:48:32.492Z,53.27
2022-08-31T20:51:16.020Z,53.52
2022-08-31T20:53:44.622Z,53.74
2022-08-31T20:56:17.022Z,53.58
2022-08-31T20:58:46.177Z,53.69
2022-08-31T21:01:15.783Z,53.61
2022-08-31T21:03:43.249Z,53.75
2022-08-31T21:06:12.180Z,53.93
2022-08-31T21:08:42.137Z,53.90
2022-08-31T21:11:11.550Z,54.08
2022-08-31T21:13:39.441Z,54.13
2022-08-31T21:16:07.067Z,54.15
2022-08-31T21:18:34.868Z,54.30
2022-08-31T21:21:08.111Z,54.31
2022-08-31T21:23:37.299Z,54.32
2022-08-31T21:26:08.456Z,54.36
2022-08-31T21:28:38.406Z,54.37
2022-08-31T21:31:16.498Z,54.40
2022-08-31T21:33:59.714Z,54.42
2022-08-31T21:36:29.204Z,54.56
2022-08-31T21:39:00.575Z,54.75
2022-08-31T21:41:29.113Z,54.91
2022-08-31T21:43:57.580Z,55.01
2022-08-31T21:46:27.712Z,55.03
2022-08-31T21:48:58.219Z,54.88
2022-08-31T21:51:28.009Z,55.07
2022-08-31T21:53:59.466Z,55.05
2022-08-31T21:56:30.750Z,55.23
2022-08-31T21:58:59.498Z,55.36
2022-08-31T22:01:29.362Z,55.46
2022-08-31T22:03:58.971Z,55.68
2022-08-31T22:06:30.715Z,55.72
2022-08-31T22:09:02.023Z,55.91
2022-08-31T22:11:35.047Z,56.04
2022-08-31T22:14:07.671Z,55.82
2022-08-31T22:16:37.453Z,55.95
2022-08-31T22:19:12.608Z,56.10
2022-08-31T22:21:46.241Z,56.06
2022-08-31T22:24:27.713Z,56.40
2022-08-31T22:26:58.279Z,56.32
2022-08-31T22:29:29.390Z,56.40
2022-08-31T22:31:59.760Z,56.62
2022-08-31T22:34:27.965Z,56.66
2022-08-31T22:36:56.445Z,56.58
2022-08-31T22:39:27.883Z,56.81
2022-08-31T22:41:56.795Z,56.84
2022-08-31T22:44:27.832Z,56.83
2022-08-31T22:46:58.289Z,56.90
2022-08-31T22:49:26.906Z,57.10
2022-08-31T22:51:54.900Z,56.99
2022-08-31T22:54:23.438Z,56.98
2022-08-31T22:56:51.971Z,56.94
2022-08-31T22:59:27.105Z,57.06
2022-08-31T23:02:00.402Z,57.28
2022-08-31T23:04:30.185Z,57.54
2022-08-31T23:06:59.066Z,57.55
2022-08-31T23:09:30.649Z,57.69
2022-08-31T23:12:00.946Z,57.68
2022-08-31T23:14:29.372Z,57.74
2022-08-31T23:17:00.549Z,57.86
2022-08-31T23:19:33.286Z,57.84
2022-08-31T23:22:01.916Z,57.95
2022-08-31T23:24:37.095Z,58.19
2022-08-31T23:27:09.114Z,58.26
2022-08-31T23:29:40.187Z,58.21
2022-08-31T23:32:11.934Z,58.45
2022-08-31T23:34:41.900Z,58.36
2022-08-31T23:37:10.656Z,58.44
2022-08-31T23:39:43.337Z,58.35
2022-08-31T23:42:13.819Z,58.35
2022-08-31T23:44:43.431Z,58.38
2022-08-31T23:47:13.724Z,58.56
2022-08-31T23:49:42.548Z,58.44
2022-08-31T23:52:18.425Z,58.72
2022-08-31T23:54:46.494Z,58.62
2022-08-31T23:57:31.364Z,58.60
